Time;durP1;ratioP1;P1;durP2;ratioP2;P2;SDS_P1;SDS_P2;PMS_P1;PMS_P2;Temp;Humidity;BMP_temperature;BMP_pressure;BME280_temperature;BME280_humidity;BME280_pressure;Samples;Min_cycle;Max_cycle;Signal;HPM_P1;HPM_P2
2022/12/31 00:02:22;;;;;;;0.63;0.37;;;15.40;60.30;;;;;;20658;6867;117176;-77
2022/12/31 00:04:49;;;;;;;0.93;0.30;;;15.00;61.30;;;;;;20651;6867;117767;-76
2022/12/31 00:07:14;;;;;;;0.20;0.20;;;15.00;61.30;;;;;;20649;6867;121113;-76
2022/12/31 00:09:40;;;;;;;0.40;0.37;;;14.70;62.10;;;;;;20633;6867;118369;-77
2022/12/31 00:12:06;;;;;;;0.80;0.30;;;14.70;62.40;;;;;;20439;6867;299863;-77
2022/12/31 00:14:33;;;;;;;0.30;0.30;;;14.60;62.30;;;;;;20651;6867;117621;-77
2022/12/31 00:16:59;;;;;;;0.50;0.50;;;14.70;62.20;;;;;;20651;6867;117843;-77
2022/12/31 00:19:24;;;;;;;0.30;0.30;;;14.50;62.50;;;;;;20648;6867;118326;-76
2022/12/31 00:21:50;;;;;;;0.40;0.40;;;14.40;63.10;;;;;;20628;6867;117038;-77
2022/12/31 00:24:15;;;;;;;0.50;0.50;;;14.30;63.50;;;;;;20449;6867;277930;-76
2022/12/31 00:26:41;;;;;;;0.50;0.50;;;14.50;62.90;;;;;;20652;6867;118280;-76
2022/12/31 00:29:07;;;;;;;0.50;0.50;;;14.40;63.00;;;;;;20657;6865;117581;-76
2022/12/31 00:31:33;;;;;;;0.57;0.50;;;14.40;63.00;;;;;;20418;6867;307821;-76
2022/12/31 00:33:58;;;;;;;0.57;0.40;;;14.60;62.10;;;;;;20427;6867;306741;-77
2022/12/31 00:36:27;;;;;;;0.97;0.50;;;15.00;61.20;;;;;;20652;6867;119241;-76
2022/12/31 00:38:53;;;;;;;0.98;0.50;;;15.00;61.10;;;;;;20437;6867;338046;-76
2022/12/31 00:41:19;;;;;;;1.15;0.40;;;15.30;60.00;;;;;;20439;6867;337414;-77
2022/12/31 00:43:45;;;;;;;0.40;0.40;;;15.30;60.00;;;;;;20625;6867;118089;-77
2022/12/31 00:46:10;;;;;;;0.80;0.43;;;15.20;60.10;;;;;;20445;6867;283454;-77
2022/12/31 00:48:36;;;;;;;1.33;0.50;;;15.30;59.90;;;;;;20432;6867;301387;-78
2022/12/31 00:51:01;;;;;;;0.50;0.50;;;15.50;59.20;;;;;;20648;6867;117649;-78
2022/12/31 00:53:27;;;;;;;0.40;0.40;;;15.40;59.40;;;;;;20432;6867;312420;-76
2022/12/31 00:55:54;;;;;;;0.40;0.40;;;15.40;59.20;;;;;;20436;6867;307603;-77
2022/12/31 00:58:19;;;;;;;0.37;0.33;;;15.60;58.90;;;;;;20603;6867;117608;-77
2022/12/31 01:00:45;;;;;;;0.45;0.30;;;15.40;59.00;;;;;;20665;6867;117423;-77
2022/12/31 01:03:10;;;;;;;0.85;0.35;;;15.10;59.60;;;;;;20661;6867;117717;-78
2022/12/31 01:05:36;;;;;;;1.13;0.60;;;14.90;60.30;;;;;;20628;6867;118850;-77
2022/12/31 01:08:02;;;;;;;0.40;0.40;;;14.60;60.80;;;;;;20661;6867;117545;-77
2022/12/31 01:13:13;;;;;;;0.40;0.40;;;14.30;61.80;;;;;;20452;6867;308442;-77
2022/12/31 01:15:38;;;;;;;0.43;0.30;;;14.50;61.60;;;;;;20633;6867;117469;-77
2022/12/31 01:18:04;;;;;;;0.20;0.20;;;14.50;61.50;;;;;;20651;6867;118658;-77
2022/12/31 01:20:29;;;;;;;1.20;0.40;;;14.30;61.80;;;;;;20641;6867;117365;-76
2022/12/31 01:22:55;;;;;;;0.50;0.50;;;14.20;62.30;;;;;;20436;6867;278271;-77
2022/12/31 01:25:21;;;;;;;0.50;0.40;;;14.30;62.10;;;;;;20446;6867;283063;-78
2022/12/31 01:27:46;;;;;;;0.50;0.50;;;14.70;61.30;;;;;;20421;6867;280152;-77
2022/12/31 01:30:12;;;;;;;0.60;0.50;;;15.20;59.70;;;;;;20444;6867;307947;-77
2022/12/31 01:32:38;;;;;;;0.37;0.33;;;15.20;59.70;;;;;;20655;6867;118532;-77
2022/12/31 01:35:04;;;;;;;0.40;0.40;;;15.10;59.80;;;;;;20662;6867;117402;-77
2022/12/31 01:37:29;;;;;;;0.40;0.40;;;14.80;60.40;;;;;;20425;6867;337259;-77
2022/12/31 01:39:56;;;;;;;1.15;0.52;;;14.80;60.40;;;;;;20451;6865;308818;-77
2022/12/31 01:42:22;;;;;;;0.37;0.37;;;15.10;60.00;;;;;;20659;6867;118497;-77
2022/12/31 01:44:48;;;;;;;1.40;0.57;;;14.70;60.40;;;;;;20646;6867;118424;-77
2022/12/31 01:47:14;;;;;;;0.60;0.40;;;14.70;60.30;;;;;;20635;6867;117733;-77
2022/12/31 01:49:48;;;;;;;1.20;0.50;;;14.50;61.00;;;;;;20416;6867;278430;-77
2022/12/31 01:52:14;;;;;;;0.90;0.57;;;14.60;60.80;;;;;;20647;6867;117457;-78
2022/12/31 01:54:40;;;;;;;1.70;0.50;;;14.50;60.80;;;;;;20437;6867;336793;-77
2022/12/31 01:57:05;;;;;;;0.60;0.60;;;14.60;60.30;;;;;;20652;6867;117267;-77
2022/12/31 01:59:32;;;;;;;0.95;0.60;;;14.60;60.50;;;;;;20428;6867;308154;-77
2022/12/31 02:01:58;;;;;;;0.80;0.60;;;14.70;60.10;;;;;;20655;6867;117406;-78
2022/12/31 02:04:23;;;;;;;2.60;0.50;;;14.60;60.20;;;;;;20646;6867;117660;-77
2022/12/31 02:06:52;;;;;;;0.60;0.40;;;14.40;60.60;;;;;;20435;6867;308482;-78
2022/12/31 02:09:17;;;;;;;1.30;0.53;;;14.50;60.10;;;;;;20430;6867;290050;-81
2022/12/31 02:11:43;;;;;;;1.10;0.53;;;14.80;59.50;;;;;;20416;6867;311476;-77
2022/12/31 02:14:08;;;;;;;0.70;0.70;;;15.00;58.60;;;;;;20652;6867;117782;-77
2022/12/31 02:16:40;;;;;;;1.00;0.80;;;14.80;58.80;;;;;;20635;6867;118377;-77
2022/12/31 02:19:17;;;;;;;0.55;0.50;;;14.60;59.50;;;;;;20420;6867;343845;-77
2022/12/31 02:21:48;;;;;;;0.57;0.57;;;14.60;59.10;;;;;;20390;6867;312701;-77
2022/12/31 02:24:43;;;;;;;1.60;0.60;;;14.80;58.60;;;;;;19705;6867;312482;-79
2022/12/31 02:27:22;;;;;;;0.60;0.40;;;15.10;58.10;;;;;;20413;6867;305496;-78
2022/12/31 02:30:05;;;;;;;0.60;0.60;;;15.50;56.90;;;;;;20389;6867;310316;-77
2022/12/31 02:32:31;;;;;;;0.50;0.47;;;15.50;56.90;;;;;;20440;6867;294036;-77
2022/12/31 02:34:56;;;;;;;0.60;0.50;;;15.70;56.50;;;;;;20451;6867;311950;-77
2022/12/31 02:37:22;;;;;;;0.33;0.33;;;15.80;56.20;;;;;;20632;6867;117195;-77
2022/12/31 02:39:48;;;;;;;1.50;0.57;;;15.30;57.50;;;;;;20619;6867;143902;-79
2022/12/31 02:42:14;;;;;;;0.50;0.50;;;15.30;57.50;;;;;;20618;6867;118001;-77
2022/12/31 02:44:39;;;;;;;0.60;0.60;;;15.00;58.20;;;;;;20395;6867;280060;-77
2022/12/31 02:47:08;;;;;;;0.87;0.50;;;15.10;57.80;;;;;;20642;6867;117296;-77
2022/12/31 02:50:07;;;;;;;0.47;0.47;;;15.10;58.10;;;;;;20400;6867;307528;-76
2022/12/31 02:53:09;;;;;;;1.00;0.68;;;15.20;57.50;;;;;;20442;6865;281897;-76
2022/12/31 02:55:51;;;;;;;0.50;0.50;;;15.60;56.80;;;;;;20605;6867;117436;-77
2022/12/31 03:04:31;;;;;;;1.00;0.60;;;15.30;57.50;;;;;;20434;6867;278249;-77
2022/12/31 03:07:03;;;;;;;0.80;0.52;;;15.60;57.00;;;;;;20434;6867;307426;-77
2022/12/31 03:09:28;;;;;;;0.77;0.57;;;15.80;56.40;;;;;;20640;6867;117510;-77
2022/12/31 03:14:40;;;;;;;1.90;0.53;;;15.50;56.90;;;;;;20645;6867;117859;-78
2022/12/31 03:17:06;;;;;;;0.70;0.63;;;15.50;57.00;;;;;;20646;6867;120319;-78
2022/12/31 03:22:26;;;;;;;1.20;0.50;;;15.10;58.30;;;;;;20646;6867;123611;-77
2022/12/31 03:27:38;;;;;;;1.10;0.77;;;14.90;59.20;;;;;;20403;6867;308355;-77
2022/12/31 03:30:04;;;;;;;1.70;0.80;;;14.90;58.90;;;;;;20442;6867;278501;-77
2022/12/31 03:32:29;;;;;;;1.00;0.67;;;15.20;58.20;;;;;;20410;6867;308289;-77
2022/12/31 03:34:55;;;;;;;1.13;0.60;;;15.60;57.60;;;;;;20586;6867;117168;-77
2022/12/31 03:37:21;;;;;;;0.60;0.60;;;15.30;58.70;;;;;;20646;6867;117294;-77
2022/12/31 03:39:47;;;;;;;0.30;0.30;;;15.30;58.20;;;;;;20627;6867;117494;-77
2022/12/31 03:42:12;;;;;;;0.60;0.60;;;15.10;58.60;;;;;;20648;6867;117522;-77
2022/12/31 03:44:38;;;;;;;1.02;0.52;;;14.90;59.10;;;;;;20436;6867;308457;-77
2022/12/31 03:47:04;;;;;;;1.12;0.52;;;15.00;58.80;;;;;;20652;6867;117367;-77
2022/12/31 03:49:29;;;;;;;0.60;0.60;;;15.10;59.00;;;;;;20430;6867;308342;-77
2022/12/31 03:51:55;;;;;;;0.50;0.50;;;15.30;58.50;;;;;;20422;6867;281078;-77
2022/12/31 03:54:20;;;;;;;1.70;0.50;;;15.50;57.60;;;;;;20441;6867;307772;-77
2022/12/31 03:56:46;;;;;;;1.10;0.40;;;15.80;57.10;;;;;;20647;6867;117313;-77
2022/12/31 03:59:11;;;;;;;0.50;0.50;;;15.70;57.40;;;;;;20449;6867;305699;-77
2022/12/31 04:01:37;;;;;;;1.30;0.50;;;15.70;57.30;;;;;;20428;6867;307266;-77
2022/12/31 04:04:02;;;;;;;0.73;0.50;;;15.90;57.00;;;;;;20654;6865;120568;-78
2022/12/31 04:06:28;;;;;;;0.60;0.52;;;15.80;57.40;;;;;;20432;6867;312387;-77
2022/12/31 04:08:54;;;;;;;0.40;0.40;;;15.70;57.50;;;;;;20655;6867;117883;-77
2022/12/31 04:11:20;;;;;;;0.50;0.50;;;15.70;57.50;;;;;;20440;6867;307625;-77
2022/12/31 04:13:47;;;;;;;0.50;0.50;;;15.80;57.40;;;;;;20640;6867;118373;-77
2022/12/31 04:16:13;;;;;;;1.40;0.50;;;15.50;58.30;;;;;;20649;6867;117289;-78
2022/12/31 04:18:38;;;;;;;0.60;0.33;;;15.50;58.30;;;;;;20654;6867;117343;-77
2022/12/31 04:21:04;;;;;;;1.30;0.50;;;15.40;58.90;;;;;;20432;6867;278345;-77
2022/12/31 04:23:31;;;;;;;0.50;0.50;;;15.50;58.90;;;;;;20647;6867;117288;-77
2022/12/31 04:25:57;;;;;;;0.40;0.40;;;15.50;59.00;;;;;;20439;6867;277842;-77
2022/12/31 04:28:24;;;;;;;2.03;0.47;;;15.70;58.90;;;;;;20433;6867;306183;-77
2022/12/31 04:30:49;;;;;;;0.53;0.50;;;15.90;58.40;;;;;;20645;6867;124466;-77
2022/12/31 04:33:15;;;;;;;0.40;0.40;;;15.90;58.50;;;;;;20443;6867;278003;-78
2022/12/31 04:35:40;;;;;;;2.00;0.35;;;16.00;58.60;;;;;;20636;6867;117524;-77
2022/12/31 04:38:06;;;;;;;0.50;0.30;;;15.90;59.30;;;;;;20444;6867;283224;-78
2022/12/31 04:40:31;;;;;;;0.57;0.30;;;16.00;59.00;;;;;;20442;6867;280098;-78
2022/12/31 04:42:57;;;;;;;1.20;0.50;;;16.20;58.70;;;;;;20648;6867;117239;-77
2022/12/31 04:45:23;;;;;;;1.50;0.50;;;16.20;58.90;;;;;;20444;6867;283219;-77
2022/12/31 04:47:49;;;;;;;0.50;0.30;;;16.20;58.90;;;;;;20423;6867;308373;-77
2022/12/31 04:50:14;;;;;;;0.30;0.30;;;16.30;58.60;;;;;;20659;6867;117735;-79
2022/12/31 04:52:40;;;;;;;0.60;0.30;;;16.20;58.80;;;;;;20441;6867;282596;-82
2022/12/31 04:55:06;;;;;;;0.67;0.40;;;16.20;59.30;;;;;;20654;6867;117539;-77
2022/12/31 04:57:32;;;;;;;0.50;0.50;;;16.10;59.20;;;;;;20415;6867;308426;-77
2022/12/31 04:59:58;;;;;;;0.50;0.47;;;16.20;59.80;;;;;;20443;6867;278156;-77
2022/12/31 05:02:24;;;;;;;0.40;0.40;;;16.20;60.10;;;;;;20652;6867;117316;-78
2022/12/31 05:04:49;;;;;;;0.35;0.35;;;16.20;59.40;;;;;;20438;6867;307268;-77
2022/12/31 05:07:16;;;;;;;0.50;0.45;;;16.20;60.00;;;;;;20443;6867;330876;-79
2022/12/31 05:09:42;;;;;;;0.60;0.40;;;16.30;59.90;;;;;;20423;6867;278082;-77
2022/12/31 05:12:07;;;;;;;0.40;0.40;;;16.50;59.60;;;;;;20445;6867;307954;-79
2022/12/31 05:14:33;;;;;;;0.40;0.40;;;16.60;59.30;;;;;;20658;6865;117911;-77
2022/12/31 05:16:59;;;;;;;0.40;0.40;;;16.00;60.40;;;;;;20655;6866;117571;-77
2022/12/31 05:19:25;;;;;;;1.10;0.50;;;16.00;60.00;;;;;;20440;6867;307642;-77
2022/12/31 05:24:36;;;;;;;0.47;0.30;;;15.90;60.60;;;;;;20437;6867;308043;-77
2022/12/31 05:27:02;;;;;;;0.40;0.40;;;16.00;60.50;;;;;;20445;6867;282562;-77
2022/12/31 05:29:27;;;;;;;0.53;0.20;;;16.20;60.00;;;;;;20654;6867;121592;-78
2022/12/31 05:31:52;;;;;;;0.50;0.50;;;16.10;60.10;;;;;;20425;6867;281872;-75
2022/12/31 05:34:18;;;;;;;0.40;0.40;;;16.10;60.00;;;;;;20661;6867;117362;-74
2022/12/31 05:36:44;;;;;;;0.40;0.30;;;15.90;60.20;;;;;;20441;6867;280865;-77
2022/12/31 05:39:09;;;;;;;1.20;0.40;;;15.90;60.10;;;;;;20696;6867;117331;-77
2022/12/31 05:41:35;;;;;;;0.50;0.40;;;15.90;60.50;;;;;;20356;6867;292576;-77
2022/12/31 05:44:00;;;;;;;0.43;0.30;;;15.90;60.30;;;;;;20576;6867;117367;-75
2022/12/31 05:46:26;;;;;;;0.40;0.40;;;15.80;60.50;;;;;;20680;6867;121091;-76
2022/12/31 05:48:52;;;;;;;0.70;0.40;;;15.60;61.00;;;;;;20435;6867;307627;-76
2022/12/31 05:51:18;;;;;;;1.40;0.50;;;15.70;60.90;;;;;;20656;6867;117717;-76
2022/12/31 05:53:44;;;;;;;0.45;0.40;;;15.60;61.00;;;;;;20424;6867;307662;-74
2022/12/31 05:56:09;;;;;;;0.83;0.50;;;15.70;60.70;;;;;;20654;6867;117910;-77
2022/12/31 05:58:35;;;;;;;1.05;0.40;;;15.70;60.90;;;;;;20431;6867;314777;-77
2022/12/31 06:01:00;;;;;;;0.93;0.43;;;15.70;60.50;;;;;;20645;6867;117969;-77
2022/12/31 06:03:26;;;;;;;0.40;0.40;;;15.70;60.70;;;;;;20432;6867;308105;-76
2022/12/31 06:05:51;;;;;;;2.93;0.50;;;15.70;60.40;;;;;;20407;6867;299639;-75
2022/12/31 06:08:17;;;;;;;0.40;0.40;;;16.00;59.90;;;;;;20432;6867;342329;-75
2022/12/31 06:10:43;;;;;;;0.70;0.40;;;16.10;59.20;;;;;;20434;6867;307642;-75
2022/12/31 06:13:09;;;;;;;0.50;0.43;;;16.10;59.20;;;;;;20635;6867;117247;-75
2022/12/31 06:15:38;;;;;;;0.47;0.47;;;16.10;59.10;;;;;;20633;6867;123252;-75
2022/12/31 06:18:03;;;;;;;0.43;0.43;;;15.70;59.80;;;;;;20635;6867;123427;-75
2022/12/31 06:20:29;;;;;;;0.40;0.40;;;15.40;60.60;;;;;;20647;6867;119592;-75
2022/12/31 06:22:54;;;;;;;0.47;0.40;;;15.20;61.30;;;;;;20641;6867;118000;-75
2022/12/31 06:25:20;;;;;;;1.27;0.80;;;15.00;61.90;;;;;;20641;6865;117269;-75
2022/12/31 06:27:45;;;;;;;0.30;0.30;;;14.80;62.40;;;;;;20380;6866;309579;-75
2022/12/31 06:30:13;;;;;;;0.57;0.52;;;15.10;61.80;;;;;;20645;6867;120436;-74
2022/12/31 06:32:39;;;;;;;0.40;0.40;;;15.00;61.70;;;;;;20649;6867;117738;-74
2022/12/31 06:35:04;;;;;;;0.40;0.40;;;14.90;62.00;;;;;;20439;6867;308478;-73
2022/12/31 06:37:30;;;;;;;0.80;0.40;;;15.10;61.50;;;;;;20442;6867;308964;-74
2022/12/31 06:39:55;;;;;;;0.57;0.47;;;15.50;60.60;;;;;;20419;6867;312888;-74
2022/12/31 06:42:21;;;;;;;0.90;0.50;;;15.70;59.60;;;;;;20586;6867;120647;-74
2022/12/31 06:44:47;;;;;;;1.10;0.47;;;15.70;59.70;;;;;;20416;6867;283739;-73
2022/12/31 06:47:13;;;;;;;1.17;0.50;;;15.60;60.20;;;;;;20623;6867;121881;-73
2022/12/31 06:49:39;;;;;;;0.80;0.43;;;15.60;59.70;;;;;;20420;6867;312211;-73
2022/12/31 06:52:04;;;;;;;1.80;0.60;;;15.80;59.90;;;;;;20433;6867;308179;-74
2022/12/31 06:54:30;;;;;;;0.43;0.40;;;16.00;59.80;;;;;;20430;6867;311599;-73
2022/12/31 06:56:55;;;;;;;0.65;0.65;;;16.10;59.00;;;;;;20426;6867;330943;-73
2022/12/31 06:59:22;;;;;;;0.83;0.60;;;16.20;59.10;;;;;;20432;6867;277790;-73
2022/12/31 07:01:50;;;;;;;0.95;0.60;;;16.30;59.10;;;;;;20408;6867;278517;-74
2022/12/31 07:04:22;;;;;;;0.47;0.47;;;16.30;59.00;;;;;;20422;6867;277588;-73
2022/12/31 07:06:51;;;;;;;0.63;0.60;;;16.30;58.70;;;;;;20655;6867;117290;-74
2022/12/31 07:09:17;;;;;;;1.13;0.70;;;16.10;59.30;;;;;;20635;6867;121352;-74
2022/12/31 07:11:43;;;;;;;1.33;0.50;;;15.70;60.00;;;;;;20327;6867;278315;-73
2022/12/31 07:14:16;;;;;;;0.60;0.50;;;15.80;60.20;;;;;;20397;6867;307949;-73
2022/12/31 07:16:55;;;;;;;0.60;0.60;;;15.80;60.20;;;;;;20416;6867;308920;-73
2022/12/31 07:19:44;;;;;;;0.90;0.60;;;15.90;59.80;;;;;;20408;6867;303819;-73
2022/12/31 07:22:16;;;;;;;1.20;0.40;;;16.00;59.50;;;;;;20449;6867;286458;-74
2022/12/31 07:24:44;;;;;;;1.30;0.60;;;16.10;59.10;;;;;;20447;6867;282353;-73
2022/12/31 07:27:17;;;;;;;0.50;0.50;;;16.10;58.90;;;;;;20649;6867;117208;-73
2022/12/31 07:30:02;;;;;;;0.60;0.60;;;15.80;59.30;;;;;;20405;6867;308023;-73
2022/12/31 07:32:43;;;;;;;1.13;1.13;;;15.80;59.40;;;;;;20438;6867;277632;-73
2022/12/31 07:35:45;;;;;;;1.00;0.50;;;15.90;59.00;;;;;;20411;6867;308063;-75
2022/12/31 07:38:17;;;;;;;0.50;0.50;;;16.00;59.00;;;;;;20385;6866;313632;-73
2022/12/31 07:40:59;;;;;;;0.50;0.50;;;16.10;58.40;;;;;;20419;6867;338718;-75
2022/12/31 07:43:30;;;;;;;0.65;0.45;;;16.10;58.30;;;;;;20434;6867;341377;-74
2022/12/31 07:46:06;;;;;;;0.77;0.57;;;16.20;58.50;;;;;;20650;6867;117434;-73
2022/12/31 07:48:31;;;;;;;1.50;0.50;;;15.90;58.60;;;;;;20621;6867;120421;-75
2022/12/31 07:50:57;;;;;;;0.50;0.50;;;15.50;59.50;;;;;;20435;6867;278564;-77
2022/12/31 07:53:23;;;;;;;1.13;0.77;;;15.50;59.40;;;;;;20431;6867;311091;-74
2022/12/31 07:55:48;;;;;;;0.50;0.50;;;15.70;59.00;;;;;;20626;6867;117276;-73
2022/12/31 07:58:20;;;;;;;0.47;0.47;;;15.70;59.30;;;;;;20618;6867;117479;-77
2022/12/31 08:00:46;;;;;;;0.40;0.40;;;15.40;59.80;;;;;;20618;6867;119789;-79
2022/12/31 08:03:31;;;;;;;0.60;0.60;;;15.20;60.40;;;;;;20438;6867;342354;-74
2022/12/31 08:06:06;;;;;;;0.90;0.60;;;15.40;60.00;;;;;;20624;6867;117337;-79
2022/12/31 08:09:02;;;;;;;0.88;0.60;;;15.40;60.10;;;;;;20390;6867;307657;-73
2022/12/31 08:11:44;;;;;;;0.70;0.70;;;15.50;59.60;;;;;;20649;6867;117596;-72
2022/12/31 08:14:10;;;;;;;1.10;0.53;;;15.60;60.00;;;;;;20611;6867;117431;-72
2022/12/31 08:16:36;;;;;;;0.70;0.70;;;15.40;60.40;;;;;;20434;6867;315998;-72
2022/12/31 08:19:01;;;;;;;0.50;0.50;;;15.60;60.00;;;;;;20659;6867;121463;-72
2022/12/31 08:21:43;;;;;;;0.40;0.40;;;15.70;60.00;;;;;;20655;6867;121219;-74
2022/12/31 08:24:25;;;;;;;0.50;0.50;;;15.60;60.30;;;;;;20658;6867;116663;-76
2022/12/31 08:27:04;;;;;;;0.60;0.60;;;15.50;60.70;;;;;;20653;6867;117159;-71
2022/12/31 08:29:47;;;;;;;0.80;0.70;;;15.60;59.60;;;;;;20397;6867;308010;-72
2022/12/31 08:32:16;;;;;;;0.80;0.77;;;15.60;59.60;;;;;;20441;6867;307666;-73
2022/12/31 08:35:15;;;;;;;0.80;0.60;;;16.10;58.40;;;;;;20410;6867;308070;-74
2022/12/31 08:37:40;;;;;;;0.70;0.60;;;16.40;57.60;;;;;;20432;6867;278707;-74
2022/12/31 08:40:09;;;;;;;0.80;0.60;;;16.70;56.60;;;;;;20651;6867;117945;-73
2022/12/31 08:42:54;;;;;;;2.13;0.57;;;16.70;57.10;;;;;;20434;6867;277994;-75
2022/12/31 08:45:39;;;;;;;0.65;0.50;;;16.70;56.70;;;;;;20424;6867;341432;-75
2022/12/31 08:48:04;;;;;;;2.33;0.60;;;16.90;56.10;;;;;;19316;7255;322416;-73
2022/12/31 08:50:30;;;;;;;0.50;0.50;;;17.10;55.70;;;;;;20051;6866;116308;-74
2022/12/31 08:52:56;;;;;;;0.70;0.70;;;17.00;56.10;;;;;;20650;6867;118545;-73
2022/12/31 08:55:22;;;;;;;0.50;0.50;;;16.70;56.70;;;;;;20647;6867;118227;-72
2022/12/31 08:58:27;;;;;;;1.17;0.60;;;16.50;57.40;;;;;;20630;6867;117722;-72
2022/12/31 09:00:53;;;;;;;0.60;0.60;;;16.30;57.90;;;;;;20651;6867;117713;-75
2022/12/31 09:03:43;;;;;;;0.80;0.80;;;16.10;58.50;;;;;;20415;6867;307586;-73
2022/12/31 09:06:09;;;;;;;1.00;0.80;;;16.30;57.80;;;;;;20656;6867;122434;-72
2022/12/31 09:08:45;;;;;;;1.07;0.50;;;16.30;57.90;;;;;;20625;6867;117318;-72
2022/12/31 09:11:21;;;;;;;0.60;0.60;;;16.20;58.20;;;;;;20447;6867;307517;-74
2022/12/31 09:13:50;;;;;;;0.63;0.60;;;16.70;55.60;;;;;;20408;6867;277682;-72
2022/12/31 09:16:49;;;;;;;1.33;0.68;;;16.70;55.60;;;;;;20443;6867;316906;-73
2022/12/31 09:19:14;;;;;;;0.50;0.50;;;17.00;54.70;;;;;;20435;6867;308240;-73
2022/12/31 09:21:43;;;;;;;0.80;0.68;;;17.40;53.90;;;;;;20422;6867;278876;-71
2022/12/31 09:24:06;;;;;;;0.70;0.50;;;17.40;53.90;;;;;;20428;6867;308943;-73
2022/12/31 09:27:05;;;;;;;0.60;0.60;;;17.50;53.50;;;;;;20440;6867;283209;-72
2022/12/31 09:29:52;;;;;;;0.57;0.57;;;17.40;54.10;;;;;;20645;6867;119677;-72
2022/12/31 09:32:27;;;;;;;0.57;0.57;;;17.40;54.10;;;;;;20317;6867;278087;-72
2022/12/31 09:34:53;;;;;;;2.53;0.47;;;17.40;53.80;;;;;;20616;6867;118104;-72
2022/12/31 09:37:25;;;;;;;1.07;0.60;;;17.40;54.50;;;;;;20634;6867;117756;-72
2022/12/31 09:39:50;;;;;;;0.50;0.50;;;17.20;55.10;;;;;;20293;6867;407839;-71
2022/12/31 09:42:19;;;;;;;1.08;0.45;;;17.40;54.40;;;;;;20643;6867;117549;-72
2022/12/31 09:45:18;;;;;;;1.00;0.52;;;17.50;54.70;;;;;;20437;6867;325923;-71
2022/12/31 09:48:04;;;;;;;1.00;0.60;;;18.20;53.10;;;;;;20414;6867;336902;-71
2022/12/31 09:50:34;;;;;;;0.53;0.53;;;18.20;53.10;;;;;;19079;7190;122410;-73
2022/12/31 09:53:09;;;;;;;1.63;0.70;;;18.20;53.70;;;;;;19661;7190;125691;-71
2022/12/31 09:55:35;;;;;;;0.40;0.40;;;18.10;54.00;;;;;;19774;6867;118928;-72
2022/12/31 09:58:14;;;;;;;1.30;0.90;;;18.00;54.50;;;;;;20444;6867;312103;-71
2022/12/31 10:01:10;;;;;;;0.97;0.70;;;18.20;53.00;;;;;;20427;6865;278409;-71
2022/12/31 10:04:01;;;;;;;2.17;0.60;;;18.60;52.10;;;;;;20635;6867;118130;-73
2022/12/31 10:06:33;;;;;;;1.00;0.67;;;18.60;52.50;;;;;;20649;6867;117314;-71
2022/12/31 10:09:08;;;;;;;0.70;0.70;;;18.40;53.20;;;;;;20414;6867;278233;-71
2022/12/31 10:12:14;;;;;;;0.77;0.70;;;18.60;52.10;;;;;;20630;6867;127091;-72
2022/12/31 10:15:16;;;;;;;0.62;0.52;;;18.60;52.70;;;;;;20441;6867;308063;-71
2022/12/31 10:18:04;;;;;;;0.85;0.70;;;18.90;51.70;;;;;;20416;6867;277990;-71
2022/12/31 10:20:40;;;;;;;0.47;0.47;;;19.30;50.80;;;;;;20653;6867;118311;-69
2022/12/31 10:23:26;;;;;;;0.50;0.50;;;19.40;51.70;;;;;;20643;6867;118763;-71
2022/12/31 10:26:01;;;;;;;0.60;0.57;;;19.20;52.00;;;;;;20401;6867;286399;-72
2022/12/31 10:28:30;;;;;;;0.50;0.47;;;19.30;50.90;;;;;;20416;6867;296572;-72
2022/12/31 10:31:03;;;;;;;1.20;0.60;;;19.60;50.10;;;;;;20397;6867;288372;-71
2022/12/31 10:33:40;;;;;;;0.55;0.50;;;19.80;49.20;;;;;;20371;6867;307094;-72
2022/12/31 10:36:07;;;;;;;0.53;0.53;;;20.20;49.60;;;;;;20384;6867;308430;-72
2022/12/31 10:38:46;;;;;;;0.50;0.50;;;20.20;48.90;;;;;;20617;6867;117250;-71
2022/12/31 10:41:44;;;;;;;0.77;0.73;;;20.10;49.80;;;;;;20652;6867;120386;-71
2022/12/31 10:44:30;;;;;;;0.50;0.50;;;19.80;50.70;;;;;;20420;6867;329806;-72
2022/12/31 10:46:55;;;;;;;0.50;0.50;;;19.90;49.50;;;;;;20400;6867;283099;-71
2022/12/31 10:49:21;;;;;;;1.20;0.60;;;20.10;49.00;;;;;;20389;6867;336307;-72
2022/12/31 10:51:52;;;;;;;1.93;0.60;;;20.30;48.20;;;;;;20350;6867;308702;-71
2022/12/31 10:54:31;;;;;;;0.40;0.40;;;20.50;47.80;;;;;;20590;6867;118480;-73
2022/12/31 10:57:26;;;;;;;0.97;0.73;;;20.40;48.80;;;;;;20418;6867;278042;-73
2022/12/31 11:00:11;;;;;;;1.33;0.60;;;20.30;48.60;;;;;;20588;6867;122215;-73
2022/12/31 11:03:00;;;;;;;0.77;0.60;;;19.90;50.50;;;;;;20030;6867;119404;-69
2022/12/31 11:05:37;;;;;;;0.60;0.60;;;20.00;49.40;;;;;;20421;6867;337269;-71
2022/12/31 11:08:09;;;;;;;0.40;0.40;;;20.00;49.40;;;;;;20635;6867;118000;-72
2022/12/31 11:10:52;;;;;;;0.63;0.60;;;19.90;49.90;;;;;;20424;6867;308070;-71
2022/12/31 11:13:38;;;;;;;0.60;0.60;;;20.10;50.00;;;;;;20644;6866;120067;-73
2022/12/31 11:16:07;;;;;;;0.90;0.60;;;20.00;49.80;;;;;;20636;6867;118368;-71
2022/12/31 11:18:32;;;;;;;0.60;0.60;;;19.80;50.30;;;;;;20638;6867;118361;-73
2022/12/31 11:21:15;;;;;;;0.37;0.37;;;19.70;51.50;;;;;;20630;6867;119465;-73
2022/12/31 11:23:57;;;;;;;0.60;0.60;;;19.50;51.30;;;;;;20621;6867;117679;-72
2022/12/31 11:26:28;;;;;;;0.90;0.60;;;19.50;51.80;;;;;;20415;6867;278519;-74
2022/12/31 11:29:03;;;;;;;0.50;0.50;;;19.70;49.60;;;;;;20535;6867;117231;-72
2022/12/31 11:32:05;;;;;;;1.23;0.63;;;19.80;50.00;;;;;;20621;6867;117245;-72
2022/12/31 11:35:07;;;;;;;0.60;0.33;;;19.70;50.40;;;;;;20599;6867;118271;-71
2022/12/31 11:37:43;;;;;;;0.87;0.53;;;19.60;50.80;;;;;;20411;6867;278690;-72
2022/12/31 11:40:22;;;;;;;0.60;0.40;;;19.80;49.40;;;;;;20627;6867;117573;-72
2022/12/31 11:42:51;;;;;;;0.70;0.70;;;19.80;51.20;;;;;;20639;6867;117573;-72
2022/12/31 11:45:33;;;;;;;0.40;0.40;;;19.70;50.40;;;;;;20624;6867;117170;-73
2022/12/31 11:48:22;;;;;;;1.83;0.80;;;19.60;50.80;;;;;;20648;6867;117441;-71
2022/12/31 11:51:03;;;;;;;1.62;0.62;;;19.50;50.90;;;;;;20434;6867;279133;-71
2022/12/31 11:53:39;;;;;;;0.90;0.50;;;19.80;48.70;;;;;;20470;6867;291253;-71
2022/12/31 11:56:18;;;;;;;1.00;0.47;;;20.20;47.70;;;;;;20466;6867;337216;-73
2022/12/31 11:58:51;;;;;;;1.03;0.57;;;20.50;47.20;;;;;;20574;6867;123287;-72
2022/12/31 12:01:36;;;;;;;0.43;0.43;;;20.50;48.20;;;;;;20650;6867;117920;-73
2022/12/31 12:04:02;;;;;;;0.55;0.40;;;20.30;48.50;;;;;;20444;6867;307185;-72
2022/12/31 12:06:28;;;;;;;0.70;0.50;;;20.40;47.50;;;;;;20440;6867;307564;-73
2022/12/31 12:08:53;;;;;;;0.97;0.50;;;20.70;47.10;;;;;;20431;6867;339709;-72
2022/12/31 12:11:22;;;;;;;0.40;0.40;;;20.90;47.20;;;;;;20424;6867;292482;-72
2022/12/31 12:13:48;;;;;;;0.40;0.40;;;21.10;46.00;;;;;;20622;6867;117607;-72
2022/12/31 12:16:13;;;;;;;0.40;0.40;;;21.00;46.80;;;;;;20643;6867;117508;-73
2022/12/31 12:19:05;;;;;;;0.60;0.60;;;20.70;47.30;;;;;;20434;6867;277580;-72
2022/12/31 12:21:31;;;;;;;0.73;0.30;;;20.80;46.60;;;;;;20650;6867;117845;-74
2022/12/31 12:23:56;;;;;;;0.50;0.50;;;20.70;47.30;;;;;;20433;6865;341808;-74
2022/12/31 12:26:28;;;;;;;1.20;0.50;;;20.70;45.90;;;;;;20433;6866;278334;-73
2022/12/31 12:28:54;;;;;;;0.80;0.50;;;20.90;45.10;;;;;;20424;6867;304381;-74
2022/12/31 12:31:19;;;;;;;0.50;0.50;;;21.10;45.10;;;;;;20431;6867;308424;-72
2022/12/31 12:33:46;;;;;;;0.40;0.40;;;21.10;46.00;;;;;;20626;6867;118862;-72
2022/12/31 12:36:11;;;;;;;0.77;0.43;;;21.10;46.00;;;;;;20646;6867;120485;-71
2022/12/31 12:38:37;;;;;;;0.90;0.43;;;20.90;46.70;;;;;;20644;6867;117690;-73
2022/12/31 12:41:03;;;;;;;0.50;0.50;;;20.60;46.70;;;;;;20438;6867;312322;-73
2022/12/31 12:43:33;;;;;;;2.33;0.50;;;20.80;45.10;;;;;;20434;6867;282018;-73
2022/12/31 12:46:05;;;;;;;0.33;0.33;;;20.80;45.10;;;;;;20648;6867;117473;-73
2022/12/31 12:48:36;;;;;;;1.33;0.50;;;20.80;46.20;;;;;;20588;6867;117303;-73
2022/12/31 12:51:19;;;;;;;0.77;0.77;;;20.50;47.00;;;;;;20643;6867;117706;-73
2022/12/31 12:53:57;;;;;;;3.73;1.23;;;20.20;47.70;;;;;;20572;6867;117804;-73
2022/12/31 12:56:29;;;;;;;1.00;0.50;;;20.00;48.30;;;;;;20438;6867;308331;-72
2022/12/31 12:59:04;;;;;;;0.62;0.40;;;20.20;46.90;;;;;;20404;6867;307911;-71
2022/12/31 13:01:40;;;;;;;0.40;0.40;;;20.40;46.80;;;;;;20608;6867;121394;-71
2022/12/31 13:04:32;;;;;;;0.40;0.40;;;20.40;46.70;;;;;;20628;6867;117772;-72
2022/12/31 13:06:57;;;;;;;0.40;0.40;;;20.20;47.50;;;;;;20649;6867;117261;-71
2022/12/31 13:09:32;;;;;;;0.30;0.30;;;19.90;47.90;;;;;;20625;6867;117871;-71
2022/12/31 13:12:10;;;;;;;1.03;0.40;;;19.70;48.40;;;;;;20640;6867;117933;-72
2022/12/31 13:14:36;;;;;;;0.80;0.40;;;19.50;48.80;;;;;;20451;6867;308219;-72
2022/12/31 13:17:03;;;;;;;1.67;0.60;;;19.70;47.90;;;;;;20643;6867;117793;-72